sensor_id;sensor_type;location;lat;lon;timestamp;P1;durP1;ratioP1;P2;durP2;ratioP2
78197;SDS011;67472;51.554;7.812;2023-06-14T00:02:25;11.65;;;8.13;;
78197;SDS011;67472;51.554;7.812;2023-06-14T00:05:12;11.63;;;8.45;;
78197;SDS011;67472;51.554;7.812;2023-06-14T00:07:59;9.25;;;7.68;;
78197;SDS011;67472;51.554;7.812;2023-06-14T00:10:46;13.48;;;7.68;;
78197;SDS011;67472;51.554;7.812;2023-06-14T00:13:32;11.77;;;7.60;;
78197;SDS011;67472;51.554;7.812;2023-06-14T00:16:19;9.85;;;7.80;;
78197;SDS011;67472;51.554;7.812;2023-06-14T00:19:07;10.93;;;7.55;;
78197;SDS011;67472;51.554;7.812;2023-06-14T00:21:54;11.85;;;7.85;;
78197;SDS011;67472;51.554;7.812;2023-06-14T00:24:41;9.52;;;8.20;;
78197;SDS011;67472;51.554;7.812;2023-06-14T00:27:27;8.23;;;7.22;;
78197;SDS011;67472;51.554;7.812;2023-06-14T00:30:14;9.00;;;7.45;;
78197;SDS011;67472;51.554;7.812;2023-06-14T00:33:01;8.70;;;6.82;;
78197;SDS011;67472;51.554;7.812;2023-06-14T00:35:48;9.43;;;7.20;;
78197;SDS011;67472;51.554;7.812;2023-06-14T00:38:34;9.45;;;7.18;;
78197;SDS011;67472;51.554;7.812;2023-06-14T00:41:21;9.18;;;7.25;;
78197;SDS011;67472;51.554;7.812;2023-06-14T00:44:07;9.57;;;6.43;;
78197;SDS011;67472;51.554;7.812;2023-06-14T00:46:53;9.55;;;6.85;;
78197;SDS011;67472;51.554;7.812;2023-06-14T00:49:42;9.02;;;7.10;;
78197;SDS011;67472;51.554;7.812;2023-06-14T00:52:29;9.38;;;7.53;;
78197;SDS011;67472;51.554;7.812;2023-06-14T00:55:17;10.85;;;7.80;;
78197;SDS011;67472;51.554;7.812;2023-06-14T00:58:03;10.23;;;7.35;;
78197;SDS011;67472;51.554;7.812;2023-06-14T01:00:50;9.50;;;7.45;;
78197;SDS011;67472;51.554;7.812;2023-06-14T01:03:37;9.15;;;7.60;;
78197;SDS011;67472;51.554;7.812;2023-06-14T01:06:27;11.68;;;7.55;;
78197;SDS011;67472;51.554;7.812;2023-06-14T01:09:21;14.20;;;8.27;;
78197;SDS011;67472;51.554;7.812;2023-06-14T01:12:15;9.48;;;7.93;;
78197;SDS011;67472;51.554;7.812;2023-06-14T01:15:07;9.65;;;7.95;;
78197;SDS011;67472;51.554;7.812;2023-06-14T01:17:54;9.25;;;7.40;;
78197;SDS011;67472;51.554;7.812;2023-06-14T01:20:42;10.30;;;8.00;;
78197;SDS011;67472;51.554;7.812;2023-06-14T01:23:33;10.05;;;7.72;;
78197;SDS011;67472;51.554;7.812;2023-06-14T01:26:19;9.63;;;8.02;;
78197;SDS011;67472;51.554;7.812;2023-06-14T01:29:06;9.68;;;7.10;;
78197;SDS011;67472;51.554;7.812;2023-06-14T01:31:53;14.40;;;7.72;;
78197;SDS011;67472;51.554;7.812;2023-06-14T01:34:40;13.00;;;7.53;;
78197;SDS011;67472;51.554;7.812;2023-06-14T01:37:26;11.63;;;7.15;;
78197;SDS011;67472;51.554;7.812;2023-06-14T01:40:15;9.90;;;7.45;;
78197;SDS011;67472;51.554;7.812;2023-06-14T01:43:03;10.82;;;6.43;;
78197;SDS011;67472;51.554;7.812;2023-06-14T01:45:51;11.73;;;7.15;;
78197;SDS011;67472;51.554;7.812;2023-06-14T01:48:39;10.35;;;7.45;;
78197;SDS011;67472;51.554;7.812;2023-06-14T01:51:26;9.32;;;7.18;;
78197;SDS011;67472;51.554;7.812;2023-06-14T01:54:12;13.57;;;7.07;;
78197;SDS011;67472;51.554;7.812;2023-06-14T01:57:00;10.73;;;6.40;;
78197;SDS011;67472;51.554;7.812;2023-06-14T01:59:46;12.45;;;6.90;;
78197;SDS011;67472;51.554;7.812;2023-06-14T02:02:32;12.80;;;7.78;;
78197;SDS011;67472;51.554;7.812;2023-06-14T02:05:19;9.77;;;7.28;;
78197;SDS011;67472;51.554;7.812;2023-06-14T02:08:06;10.00;;;7.15;;
78197;SDS011;67472;51.554;7.812;2023-06-14T02:10:53;10.23;;;6.43;;
78197;SDS011;67472;51.554;7.812;2023-06-14T02:13:41;8.15;;;6.07;;
78197;SDS011;67472;51.554;7.812;2023-06-14T02:16:28;7.07;;;6.30;;
78197;SDS011;67472;51.554;7.812;2023-06-14T02:19:14;12.18;;;6.85;;
78197;SDS011;67472;51.554;7.812;2023-06-14T02:22:02;9.75;;;6.45;;
78197;SDS011;67472;51.554;7.812;2023-06-14T02:24:48;7.90;;;6.72;;
78197;SDS011;67472;51.554;7.812;2023-06-14T02:27:38;8.90;;;6.15;;
78197;SDS011;67472;51.554;7.812;2023-06-14T02:30:26;11.13;;;6.82;;
78197;SDS011;67472;51.554;7.812;2023-06-14T02:33:14;9.77;;;6.90;;
78197;SDS011;67472;51.554;7.812;2023-06-14T02:36:02;8.65;;;6.55;;
78197;SDS011;67472;51.554;7.812;2023-06-14T02:38:48;8.55;;;6.28;;
78197;SDS011;67472;51.554;7.812;2023-06-14T02:41:34;10.50;;;6.32;;
78197;SDS011;67472;51.554;7.812;2023-06-14T02:44:23;7.47;;;5.40;;
78197;SDS011;67472;51.554;7.812;2023-06-14T02:47:12;10.13;;;6.35;;
78197;SDS011;67472;51.554;7.812;2023-06-14T02:50:01;10.80;;;6.40;;
78197;SDS011;67472;51.554;7.812;2023-06-14T02:52:48;11.95;;;6.03;;
78197;SDS011;67472;51.554;7.812;2023-06-14T02:55:34;6.75;;;5.72;;
78197;SDS011;67472;51.554;7.812;2023-06-14T02:58:24;9.65;;;5.88;;
78197;SDS011;67472;51.554;7.812;2023-06-14T03:01:11;14.07;;;6.43;;
78197;SDS011;67472;51.554;7.812;2023-06-14T03:04:00;10.85;;;6.18;;
78197;SDS011;67472;51.554;7.812;2023-06-14T03:06:49;8.95;;;5.63;;
78197;SDS011;67472;51.554;7.812;2023-06-14T03:09:38;7.30;;;4.90;;
78197;SDS011;67472;51.554;7.812;2023-06-14T03:12:28;11.02;;;6.28;;
78197;SDS011;67472;51.554;7.812;2023-06-14T03:15:16;9.23;;;5.30;;
78197;SDS011;67472;51.554;7.812;2023-06-14T03:18:06;7.05;;;5.03;;
78197;SDS011;67472;51.554;7.812;2023-06-14T03:20:55;11.70;;;4.70;;
78197;SDS011;67472;51.554;7.812;2023-06-14T03:23:46;10.02;;;5.28;;
78197;SDS011;67472;51.554;7.812;2023-06-14T03:26:33;6.25;;;4.95;;
78197;SDS011;67472;51.554;7.812;2023-06-14T03:29:21;8.43;;;4.70;;
78197;SDS011;67472;51.554;7.812;2023-06-14T03:32:08;9.65;;;4.65;;
78197;SDS011;67472;51.554;7.812;2023-06-14T03:34:57;5.97;;;4.05;;
78197;SDS011;67472;51.554;7.812;2023-06-14T03:37:45;8.35;;;4.70;;
78197;SDS011;67472;51.554;7.812;2023-06-14T03:40:32;10.80;;;5.22;;
78197;SDS011;67472;51.554;7.812;2023-06-14T03:43:21;8.90;;;4.68;;
78197;SDS011;67472;51.554;7.812;2023-06-14T03:46:08;8.43;;;5.68;;
78197;SDS011;67472;51.554;7.812;2023-06-14T03:48:54;10.20;;;5.47;;
78197;SDS011;67472;51.554;7.812;2023-06-14T03:51:40;9.95;;;4.88;;
78197;SDS011;67472;51.554;7.812;2023-06-14T03:54:28;6.63;;;5.38;;
78197;SDS011;67472;51.554;7.812;2023-06-14T03:57:17;9.88;;;4.30;;
78197;SDS011;67472;51.554;7.812;2023-06-14T04:00:05;8.27;;;4.75;;
78197;SDS011;67472;51.554;7.812;2023-06-14T04:02:59;10.90;;;4.43;;
78197;SDS011;67472;51.554;7.812;2023-06-14T04:05:47;9.60;;;5.20;;
78197;SDS011;67472;51.554;7.812;2023-06-14T04:08:34;7.97;;;4.35;;
78197;SDS011;67472;51.554;7.812;2023-06-14T04:11:22;6.93;;;4.30;;
78197;SDS011;67472;51.554;7.812;2023-06-14T04:14:11;13.27;;;5.13;;
78197;SDS011;67472;51.554;7.812;2023-06-14T04:16:57;9.05;;;4.78;;
78197;SDS011;67472;51.554;7.812;2023-06-14T04:19:43;16.88;;;4.50;;
78197;SDS011;67472;51.554;7.812;2023-06-14T04:22:29;12.85;;;4.57;;
78197;SDS011;67472;51.554;7.812;2023-06-14T04:25:17;13.05;;;4.85;;
78197;SDS011;67472;51.554;7.812;2023-06-14T04:28:06;11.65;;;5.25;;
78197;SDS011;67472;51.554;7.812;2023-06-14T04:30:53;12.82;;;4.70;;
78197;SDS011;67472;51.554;7.812;2023-06-14T04:33:40;9.52;;;4.90;;
78197;SDS011;67472;51.554;7.812;2023-06-14T04:36:34;6.43;;;4.30;;
78197;SDS011;67472;51.554;7.812;2023-06-14T04:39:22;14.65;;;5.03;;
78197;SDS011;67472;51.554;7.812;2023-06-14T04:42:10;10.43;;;4.93;;
78197;SDS011;67472;51.554;7.812;2023-06-14T04:44:58;14.00;;;4.38;;
78197;SDS011;67472;51.554;7.812;2023-06-14T04:47:44;12.40;;;4.35;;
78197;SDS011;67472;51.554;7.812;2023-06-14T04:50:30;16.20;;;4.78;;
78197;SDS011;67472;51.554;7.812;2023-06-14T04:53:18;11.52;;;4.07;;
78197;SDS011;67472;51.554;7.812;2023-06-14T04:56:06;13.45;;;4.32;;
78197;SDS011;67472;51.554;7.812;2023-06-14T04:58:52;9.88;;;4.43;;
78197;SDS011;67472;51.554;7.812;2023-06-14T05:01:42;14.55;;;4.47;;
78197;SDS011;67472;51.554;7.812;2023-06-14T05:04:33;8.68;;;4.72;;
78197;SDS011;67472;51.554;7.812;2023-06-14T05:07:24;7.57;;;4.10;;
78197;SDS011;67472;51.554;7.812;2023-06-14T05:10:10;15.38;;;5.25;;
78197;SDS011;67472;51.554;7.812;2023-06-14T05:12:57;11.82;;;4.53;;
78197;SDS011;67472;51.554;7.812;2023-06-14T05:15:43;6.63;;;4.15;;
78197;SDS011;67472;51.554;7.812;2023-06-14T05:18:31;9.38;;;4.03;;
78197;SDS011;67472;51.554;7.812;2023-06-14T05:21:18;6.47;;;4.13;;
78197;SDS011;67472;51.554;7.812;2023-06-14T05:24:05;8.82;;;3.78;;
78197;SDS011;67472;51.554;7.812;2023-06-14T05:26:53;12.30;;;3.65;;
78197;SDS011;67472;51.554;7.812;2023-06-14T05:29:39;7.07;;;3.58;;
78197;SDS011;67472;51.554;7.812;2023-06-14T05:32:26;7.97;;;3.80;;
78197;SDS011;67472;51.554;7.812;2023-06-14T05:35:15;8.60;;;3.90;;
78197;SDS011;67472;51.554;7.812;2023-06-14T05:38:01;6.28;;;3.72;;
78197;SDS011;67472;51.554;7.812;2023-06-14T05:40:48;5.93;;;3.72;;
78197;SDS011;67472;51.554;7.812;2023-06-14T05:43:43;6.25;;;3.13;;
78197;SDS011;67472;51.554;7.812;2023-06-14T05:46:30;8.88;;;3.70;;
78197;SDS011;67472;51.554;7.812;2023-06-14T05:49:16;7.60;;;3.65;;
78197;SDS011;67472;51.554;7.812;2023-06-14T05:52:04;9.38;;;3.42;;
78197;SDS011;67472;51.554;7.812;2023-06-14T05:54:51;4.35;;;2.92;;
78197;SDS011;67472;51.554;7.812;2023-06-14T05:57:37;6.75;;;3.20;;
78197;SDS011;67472;51.554;7.812;2023-06-14T06:00:23;8.85;;;3.42;;
78197;SDS011;67472;51.554;7.812;2023-06-14T06:03:09;5.90;;;3.42;;
78197;SDS011;67472;51.554;7.812;2023-06-14T06:05:57;8.15;;;3.60;;
78197;SDS011;67472;51.554;7.812;2023-06-14T06:08:45;5.03;;;2.92;;
78197;SDS011;67472;51.554;7.812;2023-06-14T06:11:31;3.47;;;3.10;;
78197;SDS011;67472;51.554;7.812;2023-06-14T06:14:18;7.00;;;3.03;;
78197;SDS011;67472;51.554;7.812;2023-06-14T06:17:04;6.15;;;2.97;;
78197;SDS011;67472;51.554;7.812;2023-06-14T06:19:51;6.50;;;3.53;;
78197;SDS011;67472;51.554;7.812;2023-06-14T06:22:37;3.92;;;3.42;;
78197;SDS011;67472;51.554;7.812;2023-06-14T06:25:26;6.45;;;2.92;;
78197;SDS011;67472;51.554;7.812;2023-06-14T06:28:12;6.97;;;2.90;;
78197;SDS011;67472;51.554;7.812;2023-06-14T06:30:59;7.18;;;3.10;;
78197;SDS011;67472;51.554;7.812;2023-06-14T06:33:46;5.88;;;3.05;;
78197;SDS011;67472;51.554;7.812;2023-06-14T06:36:32;5.95;;;3.00;;
78197;SDS011;67472;51.554;7.812;2023-06-14T06:39:19;3.97;;;2.50;;
78197;SDS011;67472;51.554;7.812;2023-06-14T06:42:07;7.63;;;3.10;;
78197;SDS011;67472;51.554;7.812;2023-06-14T06:44:55;6.30;;;2.78;;
78197;SDS011;67472;51.554;7.812;2023-06-14T06:47:42;5.07;;;3.50;;
78197;SDS011;67472;51.554;7.812;2023-06-14T06:50:28;10.13;;;2.83;;
78197;SDS011;67472;51.554;7.812;2023-06-14T06:53:14;10.85;;;3.38;;
78197;SDS011;67472;51.554;7.812;2023-06-14T06:56:03;5.60;;;2.55;;
78197;SDS011;67472;51.554;7.812;2023-06-14T06:58:51;3.58;;;2.63;;
78197;SDS011;67472;51.554;7.812;2023-06-14T07:01:37;6.13;;;2.35;;
78197;SDS011;67472;51.554;7.812;2023-06-14T07:04:23;3.92;;;2.83;;
78197;SDS011;67472;51.554;7.812;2023-06-14T07:07:10;4.50;;;2.70;;
78197;SDS011;67472;51.554;7.812;2023-06-14T07:09:56;7.00;;;3.05;;
78197;SDS011;67472;51.554;7.812;2023-06-14T07:12:43;5.40;;;2.75;;
78197;SDS011;67472;51.554;7.812;2023-06-14T07:15:31;3.60;;;3.10;;
78197;SDS011;67472;51.554;7.812;2023-06-14T07:18:17;5.07;;;2.38;;
78197;SDS011;67472;51.554;7.812;2023-06-14T07:21:03;2.78;;;2.10;;
78197;SDS011;67472;51.554;7.812;2023-06-14T07:23:50;3.00;;;2.10;;
78197;SDS011;67472;51.554;7.812;2023-06-14T07:26:36;2.35;;;1.58;;
78197;SDS011;67472;51.554;7.812;2023-06-14T07:29:23;7.55;;;2.33;;
78197;SDS011;67472;51.554;7.812;2023-06-14T07:32:10;10.15;;;1.92;;
78197;SDS011;67472;51.554;7.812;2023-06-14T07:34:57;4.63;;;1.80;;
78197;SDS011;67472;51.554;7.812;2023-06-14T07:37:43;1.95;;;1.25;;
78197;SDS011;67472;51.554;7.812;2023-06-14T07:40:30;2.58;;;1.50;;
78197;SDS011;67472;51.554;7.812;2023-06-14T07:43:16;1.52;;;1.02;;
78197;SDS011;67472;51.554;7.812;2023-06-14T07:46:03;1.75;;;1.23;;
78197;SDS011;67472;51.554;7.812;2023-06-14T07:48:51;2.78;;;1.50;;
78197;SDS011;67472;51.554;7.812;2023-06-14T07:51:37;2.80;;;1.60;;
78197;SDS011;67472;51.554;7.812;2023-06-14T07:54:24;8.20;;;2.28;;
78197;SDS011;67472;51.554;7.812;2023-06-14T07:57:11;6.95;;;1.63;;
78197;SDS011;67472;51.554;7.812;2023-06-14T07:59:57;1.75;;;1.50;;
78197;SDS011;67472;51.554;7.812;2023-06-14T08:02:44;1.40;;;1.30;;
78197;SDS011;67472;51.554;7.812;2023-06-14T08:05:32;2.17;;;1.10;;
78197;SDS011;67472;51.554;7.812;2023-06-14T08:08:19;4.88;;;1.05;;
78197;SDS011;67472;51.554;7.812;2023-06-14T08:11:06;2.58;;;1.15;;
78197;SDS011;67472;51.554;7.812;2023-06-14T08:13:52;1.48;;;1.33;;
78197;SDS011;67472;51.554;7.812;2023-06-14T08:16:39;1.30;;;1.17;;
78197;SDS011;67472;51.554;7.812;2023-06-14T08:19:25;3.25;;;1.33;;
78197;SDS011;67472;51.554;7.812;2023-06-14T08:22:13;1.13;;;1.13;;
78197;SDS011;67472;51.554;7.812;2023-06-14T08:24:59;2.58;;;1.40;;
78197;SDS011;67472;51.554;7.812;2023-06-14T08:27:45;3.13;;;1.80;;
78197;SDS011;67472;51.554;7.812;2023-06-14T08:30:31;2.53;;;1.73;;
78197;SDS011;67472;51.554;7.812;2023-06-14T08:33:18;2.75;;;1.83;;
78197;SDS011;67472;51.554;7.812;2023-06-14T08:36:04;1.90;;;1.52;;
78197;SDS011;67472;51.554;7.812;2023-06-14T08:38:52;1.30;;;1.20;;
78197;SDS011;67472;51.554;7.812;2023-06-14T08:41:40;4.82;;;2.03;;
78197;SDS011;67472;51.554;7.812;2023-06-14T08:44:27;4.15;;;1.88;;
78197;SDS011;67472;51.554;7.812;2023-06-14T08:47:13;3.25;;;1.50;;
78197;SDS011;67472;51.554;7.812;2023-06-14T08:50:02;1.70;;;1.40;;
78197;SDS011;67472;51.554;7.812;2023-06-14T08:52:51;3.92;;;1.60;;
78197;SDS011;67472;51.554;7.812;2023-06-14T08:55:46;2.13;;;1.50;;
78197;SDS011;67472;51.554;7.812;2023-06-14T08:58:33;2.72;;;2.00;;
78197;SDS011;67472;51.554;7.812;2023-06-14T09:01:20;4.55;;;1.58;;
78197;SDS011;67472;51.554;7.812;2023-06-14T09:04:07;3.95;;;1.67;;
78197;SDS011;67472;51.554;7.812;2023-06-14T09:06:53;8.38;;;1.30;;
78197;SDS011;67472;51.554;7.812;2023-06-14T09:09:40;3.67;;;1.67;;
78197;SDS011;67472;51.554;7.812;2023-06-14T09:12:29;4.93;;;1.60;;
78197;SDS011;67472;51.554;7.812;2023-06-14T09:15:16;2.33;;;1.60;;
78197;SDS011;67472;51.554;7.812;2023-06-14T09:18:02;7.05;;;1.75;;
78197;SDS011;67472;51.554;7.812;2023-06-14T09:20:50;3.50;;;1.40;;
78197;SDS011;67472;51.554;7.812;2023-06-14T09:23:37;5.05;;;1.60;;
78197;SDS011;67472;51.554;7.812;2023-06-14T09:26:23;1.45;;;1.35;;
78197;SDS011;67472;51.554;7.812;2023-06-14T09:29:13;3.75;;;1.23;;
78197;SDS011;67472;51.554;7.812;2023-06-14T09:32:02;4.75;;;1.70;;
78197;SDS011;67472;51.554;7.812;2023-06-14T09:34:49;1.50;;;1.40;;
78197;SDS011;67472;51.554;7.812;2023-06-14T09:37:35;3.28;;;1.23;;
78197;SDS011;67472;51.554;7.812;2023-06-14T09:40:23;1.70;;;1.40;;
78197;SDS011;67472;51.554;7.812;2023-06-14T09:43:09;2.80;;;1.20;;
78197;SDS011;67472;51.554;7.812;2023-06-14T09:45:57;3.17;;;1.30;;
78197;SDS011;67472;51.554;7.812;2023-06-14T09:48:44;4.40;;;1.30;;
78197;SDS011;67472;51.554;7.812;2023-06-14T09:51:30;1.75;;;1.50;;
78197;SDS011;67472;51.554;7.812;2023-06-14T09:54:18;6.47;;;1.38;;
78197;SDS011;67472;51.554;7.812;2023-06-14T09:57:08;1.30;;;1.05;;
78197;SDS011;67472;51.554;7.812;2023-06-14T09:59:56;1.17;;;1.02;;
78197;SDS011;67472;51.554;7.812;2023-06-14T10:02:46;2.63;;;1.40;;
78197;SDS011;67472;51.554;7.812;2023-06-14T10:05:40;1.40;;;1.23;;
78197;SDS011;67472;51.554;7.812;2023-06-14T10:08:30;4.40;;;1.80;;
78197;SDS011;67472;51.554;7.812;2023-06-14T10:11:17;2.67;;;1.77;;
78197;SDS011;67472;51.554;7.812;2023-06-14T10:14:04;4.80;;;2.20;;
78197;SDS011;67472;51.554;7.812;2023-06-14T10:16:52;2.15;;;1.95;;
78197;SDS011;67472;51.554;7.812;2023-06-14T10:19:48;2.20;;;1.90;;
78197;SDS011;67472;51.554;7.812;2023-06-14T10:22:40;3.28;;;1.90;;
78197;SDS011;67472;51.554;7.812;2023-06-14T10:25:33;2.08;;;1.58;;
78197;SDS011;67472;51.554;7.812;2023-06-14T10:28:20;4.10;;;1.98;;
78197;SDS011;67472;51.554;7.812;2023-06-14T10:31:08;5.40;;;2.00;;
78197;SDS011;67472;51.554;7.812;2023-06-14T10:33:56;3.95;;;2.20;;
78197;SDS011;67472;51.554;7.812;2023-06-14T10:36:44;2.95;;;1.77;;
78197;SDS011;67472;51.554;7.812;2023-06-14T10:39:30;5.13;;;1.80;;
78197;SDS011;67472;51.554;7.812;2023-06-14T10:42:17;5.57;;;2.28;;
78197;SDS011;67472;51.554;7.812;2023-06-14T10:45:04;3.00;;;2.20;;
78197;SDS011;67472;51.554;7.812;2023-06-14T10:47:51;1.80;;;1.70;;
78197;SDS011;67472;51.554;7.812;2023-06-14T10:50:38;5.50;;;1.90;;
78197;SDS011;67472;51.554;7.812;2023-06-14T10:53:30;4.45;;;1.80;;
78197;SDS011;67472;51.554;7.812;2023-06-14T10:56:29;1.70;;;1.60;;
78197;SDS011;67472;51.554;7.812;2023-06-14T10:59:17;1.55;;;1.45;;
78197;SDS011;67472;51.554;7.812;2023-06-14T11:02:18;1.92;;;1.80;;
78197;SDS011;67472;51.554;7.812;2023-06-14T11:05:25;3.05;;;1.80;;
78197;SDS011;67472;51.554;7.812;2023-06-14T11:08:18;2.47;;;1.60;;
78197;SDS011;67472;51.554;7.812;2023-06-14T11:11:25;6.82;;;2.00;;
78197;SDS011;67472;51.554;7.812;2023-06-14T11:14:19;20.40;;;14.38;;
78197;SDS011;67472;51.554;7.812;2023-06-14T11:17:08;4.38;;;2.42;;
78197;SDS011;67472;51.554;7.812;2023-06-14T11:20:07;2.15;;;1.65;;
78197;SDS011;67472;51.554;7.812;2023-06-14T11:22:54;6.32;;;2.03;;
78197;SDS011;67472;51.554;7.812;2023-06-14T11:25:40;5.60;;;2.17;;
78197;SDS011;67472;51.554;7.812;2023-06-14T11:28:36;4.15;;;1.98;;
78197;SDS011;67472;51.554;7.812;2023-06-14T11:31:24;6.45;;;2.00;;
78197;SDS011;67472;51.554;7.812;2023-06-14T11:34:11;2.85;;;2.00;;
78197;SDS011;67472;51.554;7.812;2023-06-14T11:36:58;1.95;;;1.75;;
78197;SDS011;67472;51.554;7.812;2023-06-14T11:39:45;9.13;;;2.00;;
78197;SDS011;67472;51.554;7.812;2023-06-14T11:42:31;1.70;;;1.50;;
78197;SDS011;67472;51.554;7.812;2023-06-14T11:45:19;6.10;;;2.22;;
78197;SDS011;67472;51.554;7.812;2023-06-14T11:48:06;3.35;;;1.70;;
78197;SDS011;67472;51.554;7.812;2023-06-14T11:50:52;2.00;;;1.63;;
78197;SDS011;67472;51.554;7.812;2023-06-14T11:53:38;2.78;;;2.17;;
78197;SDS011;67472;51.554;7.812;2023-06-14T11:56:25;2.90;;;1.58;;
78197;SDS011;67472;51.554;7.812;2023-06-14T11:59:12;1.83;;;1.73;;
78197;SDS011;67472;51.554;7.812;2023-06-14T12:02:01;6.53;;;2.33;;
78197;SDS011;67472;51.554;7.812;2023-06-14T12:04:49;2.75;;;2.10;;
78197;SDS011;67472;51.554;7.812;2023-06-14T12:07:36;4.70;;;2.20;;
78197;SDS011;67472;51.554;7.812;2023-06-14T12:10:24;4.82;;;2.30;;
78197;SDS011;67472;51.554;7.812;2023-06-14T12:13:10;2.10;;;1.98;;
78197;SDS011;67472;51.554;7.812;2023-06-14T12:15:57;3.53;;;1.88;;
78197;SDS011;67472;51.554;7.812;2023-06-14T12:18:45;2.28;;;2.10;;
78197;SDS011;67472;51.554;7.812;2023-06-14T12:21:31;2.90;;;2.20;;
78197;SDS011;67472;51.554;7.812;2023-06-14T12:24:20;5.47;;;2.15;;
78197;SDS011;67472;51.554;7.812;2023-06-14T12:27:06;4.43;;;1.90;;
78197;SDS011;67472;51.554;7.812;2023-06-14T12:29:58;2.92;;;2.28;;
78197;SDS011;67472;51.554;7.812;2023-06-14T12:32:45;3.40;;;2.00;;
78197;SDS011;67472;51.554;7.812;2023-06-14T12:35:33;2.70;;;2.38;;
78197;SDS011;67472;51.554;7.812;2023-06-14T12:38:19;2.15;;;1.80;;
78197;SDS011;67472;51.554;7.812;2023-06-14T12:41:05;2.10;;;1.90;;
78197;SDS011;67472;51.554;7.812;2023-06-14T12:43:51;4.13;;;1.88;;
78197;SDS011;67472;51.554;7.812;2023-06-14T12:46:38;4.43;;;2.10;;
78197;SDS011;67472;51.554;7.812;2023-06-14T12:49:26;2.30;;;2.05;;
78197;SDS011;67472;51.554;7.812;2023-06-14T12:52:14;7.30;;;2.03;;
78197;SDS011;67472;51.554;7.812;2023-06-14T12:55:00;3.33;;;1.77;;
78197;SDS011;67472;51.554;7.812;2023-06-14T12:57:46;8.32;;;2.28;;
78197;SDS011;67472;51.554;7.812;2023-06-14T13:00:34;2.05;;;1.95;;
78197;SDS011;67472;51.554;7.812;2023-06-14T13:03:21;5.25;;;2.10;;
78197;SDS011;67472;51.554;7.812;2023-06-14T13:06:07;3.03;;;2.17;;
78197;SDS011;67472;51.554;7.812;2023-06-14T13:08:55;2.85;;;2.40;;
78197;SDS011;67472;51.554;7.812;2023-06-14T13:11:42;4.32;;;2.22;;
78197;SDS011;67472;51.554;7.812;2023-06-14T13:14:30;2.17;;;1.98;;
78197;SDS011;67472;51.554;7.812;2023-06-14T13:17:17;6.55;;;2.30;;
78197;SDS011;67472;51.554;7.812;2023-06-14T13:20:03;2.45;;;2.20;;
78197;SDS011;67472;51.554;7.812;2023-06-14T13:22:50;2.97;;;2.20;;
78197;SDS011;67472;51.554;7.812;2023-06-14T13:25:38;2.60;;;2.20;;
78197;SDS011;67472;51.554;7.812;2023-06-14T13:28:24;2.70;;;1.95;;
78197;SDS011;67472;51.554;7.812;2023-06-14T13:31:11;6.65;;;1.67;;
78197;SDS011;67472;51.554;7.812;2023-06-14T13:33:57;5.25;;;2.17;;
78197;SDS011;67472;51.554;7.812;2023-06-14T13:36:43;2.42;;;1.70;;
78197;SDS011;67472;51.554;7.812;2023-06-14T13:39:30;2.83;;;1.80;;
78197;SDS011;67472;51.554;7.812;2023-06-14T13:42:18;2.15;;;1.88;;
78197;SDS011;67472;51.554;7.812;2023-06-14T13:45:04;3.38;;;2.03;;
78197;SDS011;67472;51.554;7.812;2023-06-14T13:47:51;3.33;;;2.15;;
78197;SDS011;67472;51.554;7.812;2023-06-14T13:50:39;4.88;;;2.15;;
78197;SDS011;67472;51.554;7.812;2023-06-14T13:53:25;2.10;;;1.83;;
78197;SDS011;67472;51.554;7.812;2023-06-14T13:56:12;2.50;;;2.15;;
78197;SDS011;67472;51.554;7.812;2023-06-14T13:58:59;2.72;;;2.10;;
78197;SDS011;67472;51.554;7.812;2023-06-14T14:01:46;2.50;;;1.55;;
78197;SDS011;67472;51.554;7.812;2023-06-14T14:04:33;3.38;;;2.10;;
78197;SDS011;67472;51.554;7.812;2023-06-14T14:07:20;2.85;;;2.33;;
78197;SDS011;67472;51.554;7.812;2023-06-14T14:10:07;6.18;;;2.08;;
78197;SDS011;67472;51.554;7.812;2023-06-14T14:12:55;2.92;;;2.10;;
78197;SDS011;67472;51.554;7.812;2023-06-14T14:15:43;2.28;;;1.88;;
78197;SDS011;67472;51.554;7.812;2023-06-14T14:18:30;6.00;;;2.28;;
78197;SDS011;67472;51.554;7.812;2023-06-14T14:21:16;3.05;;;1.67;;
78197;SDS011;67472;51.554;7.812;2023-06-14T14:24:03;7.03;;;2.03;;
78197;SDS011;67472;51.554;7.812;2023-06-14T14:26:50;7.85;;;2.53;;
78197;SDS011;67472;51.554;7.812;2023-06-14T14:29:38;3.65;;;1.67;;
78197;SDS011;67472;51.554;7.812;2023-06-14T14:32:26;2.33;;;2.10;;
78197;SDS011;67472;51.554;7.812;2023-06-14T14:35:12;3.03;;;1.80;;
78197;SDS011;67472;51.554;7.812;2023-06-14T14:37:59;2.88;;;2.00;;
78197;SDS011;67472;51.554;7.812;2023-06-14T14:40:47;2.17;;;1.60;;
78197;SDS011;67472;51.554;7.812;2023-06-14T14:43:34;1.98;;;1.85;;
78197;SDS011;67472;51.554;7.812;2023-06-14T14:46:20;4.25;;;1.90;;
78197;SDS011;67472;51.554;7.812;2023-06-14T14:49:08;5.45;;;1.70;;
78197;SDS011;67472;51.554;7.812;2023-06-14T14:51:54;2.42;;;2.22;;
78197;SDS011;67472;51.554;7.812;2023-06-14T14:54:42;5.53;;;2.53;;
78197;SDS011;67472;51.554;7.812;2023-06-14T14:57:28;2.10;;;1.90;;
78197;SDS011;67472;51.554;7.812;2023-06-14T15:00:20;2.47;;;2.17;;
78197;SDS011;67472;51.554;7.812;2023-06-14T15:03:09;1.92;;;1.63;;
78197;SDS011;67472;51.554;7.812;2023-06-14T15:05:57;2.25;;;1.90;;
78197;SDS011;67472;51.554;7.812;2023-06-14T15:08:43;2.80;;;2.42;;
78197;SDS011;67472;51.554;7.812;2023-06-14T15:11:29;2.35;;;2.15;;
78197;SDS011;67472;51.554;7.812;2023-06-14T15:14:16;4.82;;;2.20;;
78197;SDS011;67472;51.554;7.812;2023-06-14T15:17:02;3.75;;;1.92;;
78197;SDS011;67472;51.554;7.812;2023-06-14T15:19:49;2.45;;;2.08;;
78197;SDS011;67472;51.554;7.812;2023-06-14T15:22:37;7.57;;;2.05;;
78197;SDS011;67472;51.554;7.812;2023-06-14T15:25:23;2.95;;;1.90;;
78197;SDS011;67472;51.554;7.812;2023-06-14T15:28:10;2.38;;;1.90;;
78197;SDS011;67472;51.554;7.812;2023-06-14T15:30:56;5.32;;;2.10;;
78197;SDS011;67472;51.554;7.812;2023-06-14T15:33:42;2.38;;;1.70;;
78197;SDS011;67472;51.554;7.812;2023-06-14T15:36:28;3.72;;;1.98;;
78197;SDS011;67472;51.554;7.812;2023-06-14T15:39:16;4.22;;;2.35;;
78197;SDS011;67472;51.554;7.812;2023-06-14T15:42:02;2.40;;;2.00;;
78197;SDS011;67472;51.554;7.812;2023-06-14T15:44:50;2.47;;;2.03;;
78197;SDS011;67472;51.554;7.812;2023-06-14T15:47:36;4.35;;;2.03;;
78197;SDS011;67472;51.554;7.812;2023-06-14T15:50:23;4.95;;;1.73;;
78197;SDS011;67472;51.554;7.812;2023-06-14T15:53:09;2.88;;;2.05;;
78197;SDS011;67472;51.554;7.812;2023-06-14T15:55:57;2.53;;;2.33;;
78197;SDS011;67472;51.554;7.812;2023-06-14T15:58:43;2.20;;;2.00;;
78197;SDS011;67472;51.554;7.812;2023-06-14T16:01:29;1.88;;;1.73;;
78197;SDS011;67472;51.554;7.812;2023-06-14T16:04:16;1.90;;;1.70;;
78197;SDS011;67472;51.554;7.812;2023-06-14T16:07:02;3.55;;;1.98;;
78197;SDS011;67472;51.554;7.812;2023-06-14T16:09:48;3.28;;;2.17;;
78197;SDS011;67472;51.554;7.812;2023-06-14T16:12:36;4.20;;;1.95;;
78197;SDS011;67472;51.554;7.812;2023-06-14T16:15:23;2.63;;;1.98;;
78197;SDS011;67472;51.554;7.812;2023-06-14T16:18:09;2.92;;;2.10;;
78197;SDS011;67472;51.554;7.812;2023-06-14T16:20:55;2.67;;;2.03;;
78197;SDS011;67472;51.554;7.812;2023-06-14T16:23:42;2.90;;;1.75;;
78197;SDS011;67472;51.554;7.812;2023-06-14T16:26:28;2.40;;;2.20;;
78197;SDS011;67472;51.554;7.812;2023-06-14T16:29:16;1.52;;;1.42;;
78197;SDS011;67472;51.554;7.812;2023-06-14T16:32:02;4.95;;;2.15;;
78197;SDS011;67472;51.554;7.812;2023-06-14T16:34:49;2.08;;;1.85;;
78197;SDS011;67472;51.554;7.812;2023-06-14T16:37:35;7.82;;;2.13;;
78197;SDS011;67472;51.554;7.812;2023-06-14T16:40:22;1.50;;;1.42;;
78197;SDS011;67472;51.554;7.812;2023-06-14T16:43:08;1.75;;;1.65;;
78197;SDS011;67472;51.554;7.812;2023-06-14T16:45:56;2.25;;;1.88;;
78197;SDS011;67472;51.554;7.812;2023-06-14T16:48:42;5.78;;;2.35;;